Kones Corner, South Dakota
Current Conditions -  °F | °C
As of 3:53 AM on Monday 26 Jan 2015 (Local Time) from KATY Reporting Station
Few Clouds Few Clouds  
Wind Chill: 26°   Ceiling: Unl
Heat Index: 35°   Visibility: 10mi
Dew Point: 29°   Wind: 14mph
Humidity: 78%   Direction: 260°W
Pressure: 29.75"   Gusts: NA
Location:  44.7326°N, 97.0258°W
Report Text: KATY 260953Z AUTO 26012KT 10SM FEW110 02/M02 A2975 RMK AO2 SLP090 T00171017
Loading
Personal Weather Stations






























Interactive Weather Map New forecast layout! Learn more

10-Day Weather Forecast

Advertisements
Track Severe Weather on mobile